Time;durP1;ratioP1;P1;durP2;ratioP2;P2;SDS_P1;SDS_P2;PMS_P1;PMS_P2;Temp;Humidity;BMP_temperature;BMP_pressure;BME280_temperature;BME280_humidity;BME280_pressure;Samples;Min_cycle;Max_cycle;Signal;HPM_P1;HPM_P2
2024/03/24 00:00:39;;;;;;;1.50;0.40;;;;;;;11.25;35.00;97699.72;4980357;28;20523;-73
2024/03/24 00:03:04;;;;;;;1.15;0.30;;;;;;;11.20;35.63;97702.03;4996186;28;20209;-73
2024/03/24 00:05:32;;;;;;;2.03;0.35;;;;;;;11.20;34.25;97702.03;5015845;28;20034;-70
2024/03/24 00:07:59;;;;;;;1.83;0.43;;;;;;;10.92;33.00;97652.25;4992836;28;20034;-71
2024/03/24 00:10:25;;;;;;;1.65;0.30;;;;;;;11.10;34.79;97698.84;4996792;28;20038;-71
2024/03/24 00:12:50;;;;;;;0.88;0.30;;;;;;;11.13;36.93;97703.69;5008859;28;20029;-70
2024/03/24 00:15:18;;;;;;;0.65;0.22;;;;;;;10.95;37.40;97689.16;4997254;28;20443;-70
2024/03/24 00:17:46;;;;;;;1.25;0.30;;;;;;;10.95;39.06;97689.16;4994182;28;20037;-70
2024/03/24 00:20:11;;;;;;;1.75;0.40;;;;;;;10.62;39.95;97636.44;5027431;28;20033;-72
2024/03/24 00:22:36;;;;;;;1.95;0.40;;;;;;;10.78;36.80;97674.59;4990775;28;20030;-68
2024/03/24 00:25:04;;;;;;;2.92;0.40;;;;;;;10.98;33.64;97688.00;5030869;28;20033;-73
2024/03/24 00:27:32;;;;;;;1.70;0.30;;;;;;;10.83;35.92;97666.28;4994072;28;20052;-70
2024/03/24 00:29:57;;;;;;;1.65;0.32;;;;;;;10.86;37.40;97671.13;4994842;28;20116;-70
2024/03/24 00:32:25;;;;;;;0.93;0.30;;;;;;;10.85;37.75;97670.31;5029732;28;20625;-70
2024/03/24 00:34:53;;;;;;;0.80;0.30;;;;;;;10.89;38.76;97678.59;4998515;28;20036;-68
2024/03/24 00:37:21;;;;;;;0.65;0.30;;;;;;;10.82;38.41;97665.47;5011236;28;20041;-72
2024/03/24 00:39:46;;;;;;;1.77;0.38;;;;;;;10.84;36.32;97689.53;4977480;28;20044;-69
2024/03/24 00:42:12;;;;;;;0.95;0.20;;;;;;;10.85;35.10;97672.94;5010253;28;20755;-71
2024/03/24 00:44:39;;;;;;;1.88;0.40;;;;;;;10.85;35.22;97659.94;4995456;28;20159;-67
2024/03/24 00:47:07;;;;;;;0.20;0.10;;;;;;;10.88;34.97;97656.16;4975097;28;20100;-69
2024/03/24 00:49:33;;;;;;;1.52;0.30;;;;;;;10.85;34.83;97651.31;4997131;28;20119;-68
2024/03/24 00:51:58;;;;;;;2.03;0.40;;;;;;;10.74;34.87;97647.31;5011847;28;20029;-71
2024/03/24 00:54:24;;;;;;;0.60;0.20;;;;;;;10.81;37.16;97658.66;4996324;28;20037;-71
2024/03/24 00:56:49;;;;;;;1.02;0.35;;;;;;;10.48;34.40;97599.00;5013986;28;20172;-71
2024/03/24 00:59:16;;;;;;;0.85;0.28;;;;;;;10.73;32.87;97636.09;5008393;28;20040;-70
2024/03/24 01:01:42;;;;;;;0.73;0.20;;;;;;;10.73;33.78;97643.91;5005909;28;20049;-69
2024/03/24 01:04:08;;;;;;;0.65;0.20;;;;;;;10.76;34.61;97638.34;5003232;28;20076;-71
2024/03/24 01:06:34;;;;;;;0.68;0.32;;;;;;;10.74;33.13;97640.31;4997974;28;20440;-69
2024/03/24 01:08:59;;;;;;;0.52;0.20;;;;;;;10.68;33.40;97638.41;5032302;28;20108;-69
2024/03/24 01:11:24;;;;;;;1.10;0.40;;;;;;;10.68;32.88;97635.00;4992764;28;20041;-70
2024/03/24 01:13:50;;;;;;;0.47;0.20;;;;;;;10.69;34.25;97647.78;4985260;28;20030;-68
2024/03/24 01:16:16;;;;;;;1.10;0.30;;;;;;;10.44;33.30;97618.50;5008544;28;20033;-71
2024/03/24 01:18:41;;;;;;;1.63;0.50;;;;;;;10.65;33.15;97650.91;4998246;28;20202;-70
2024/03/24 01:21:09;;;;;;;1.08;0.30;;;;;;;10.67;32.55;97654.97;4994342;28;20125;-68
2024/03/24 01:23:37;;;;;;;0.40;0.20;;;;;;;10.49;32.77;97623.19;4991032;28;20040;-69
2024/03/24 01:26:02;;;;;;;1.30;0.22;;;;;;;10.49;33.70;97637.00;4999208;28;20026;-69
2024/03/24 01:28:36;;;;;;;0.77;0.20;;;;;;;10.32;35.61;97620.66;4995308;28;20025;-70
2024/03/24 01:31:01;;;;;;;1.92;0.45;;;;;;;10.06;33.08;97587.09;4998066;28;20026;-67
2024/03/24 01:33:29;;;;;;;1.38;0.30;;;;;;;10.31;34.43;97631.19;4995703;28;21438;-72
2024/03/24 01:35:54;;;;;;;1.25;0.30;;;;;;;10.55;32.51;97670.13;4996108;28;20038;-68
2024/03/24 01:38:19;;;;;;;0.80;0.30;;;;;;;10.57;31.77;97672.56;4996255;28;20044;-70
2024/03/24 01:40:49;;;;;;;1.13;0.28;;;;;;;10.43;32.93;97661.06;5010355;28;20148;-70
2024/03/24 01:43:15;;;;;;;2.28;0.25;;;;;;;10.23;33.46;97632.00;4995591;28;20112;-71
2024/03/24 01:45:41;;;;;;;0.63;0.20;;;;;;;10.38;33.25;97658.13;5010187;28;20051;-68
2024/03/24 01:48:06;;;;;;;0.82;0.20;;;;;;;10.48;31.53;97661.38;5016370;28;20752;-69
2024/03/24 01:50:32;;;;;;;0.85;0.28;;;;;;;10.51;31.34;97668.00;5000674;28;20041;-69
2024/03/24 01:52:57;;;;;;;0.47;0.15;;;;;;;10.44;32.73;97662.69;4997317;28;20022;-73
2024/03/24 01:55:25;;;;;;;0.93;0.20;;;;;;;10.45;32.11;97664.28;4996080;28;20057;-69
2024/03/24 01:57:50;;;;;;;0.43;0.20;;;;;;;10.51;32.37;97665.41;5008222;28;20029;-67
2024/03/24 02:00:18;;;;;;;0.30;0.10;;;;;;;10.41;34.10;97659.63;4999183;28;20218;-71
2024/03/24 02:02:43;;;;;;;0.82;0.20;;;;;;;10.34;34.36;97660.25;4996079;28;20033;-73
2024/03/24 02:05:09;;;;;;;0.88;0.20;;;;;;;10.15;33.26;97658.03;5002063;28;20118;-70
2024/03/24 02:07:34;;;;;;;2.05;0.40;;;;;;;10.09;32.03;97654.25;4994015;28;20073;-70
2024/03/24 02:10:00;;;;;;;0.52;0.20;;;;;;;10.09;32.11;97654.25;5010756;28;20030;-69
2024/03/24 02:12:25;;;;;;;0.82;0.25;;;;;;;9.82;31.32;97601.75;4997850;28;20018;-72
2024/03/24 02:14:53;;;;;;;0.90;0.15;;;;;;;10.06;31.09;97648.59;5012513;28;20042;-67
2024/03/24 02:17:19;;;;;;;0.57;0.20;;;;;;;10.10;30.54;97635.13;4998647;28;20045;-67
2024/03/24 02:19:44;;;;;;;1.20;0.30;;;;;;;10.05;30.67;97644.38;5022495;28;20319;-69
2024/03/24 02:22:09;;;;;;;1.25;0.30;;;;;;;10.04;30.72;97634.97;5024634;28;20044;-66
2024/03/24 02:24:35;;;;;;;0.63;0.20;;;;;;;10.16;31.61;97642.25;4999991;28;20061;-66
2024/03/24 02:27:02;;;;;;;0.70;0.20;;;;;;;9.79;31.54;97596.88;4997091;28;20164;-67
2024/03/24 02:29:28;;;;;;;0.70;0.22;;;;;;;9.80;31.27;97602.84;5013559;28;20038;-69
2024/03/24 02:31:53;;;;;;;2.45;0.30;;;;;;;9.95;31.71;97631.59;5001870;28;20129;-69
2024/03/24 02:34:22;;;;;;;1.13;0.30;;;;;;;9.92;31.63;97622.31;5011573;28;20441;-69
2024/03/24 02:36:47;;;;;;;1.83;0.40;;;;;;;9.92;32.33;97632.72;5011249;28;20028;-69
2024/03/24 02:39:13;;;;;;;0.90;0.35;;;;;;;9.94;32.36;97629.97;5013867;28;20042;-69
2024/03/24 02:41:38;;;;;;;0.60;0.20;;;;;;;10.00;32.08;97621.50;4977686;28;20037;-70
2024/03/24 02:44:06;;;;;;;1.77;0.38;;;;;;;9.99;31.58;97620.69;4995357;28;20030;-71
2024/03/24 02:46:33;;;;;;;1.23;0.30;;;;;;;9.74;31.77;97575.78;4984303;28;20045;-72
2024/03/24 02:48:59;;;;;;;0.60;0.20;;;;;;;10.10;33.25;97626.53;4996612;28;20129;-70
2024/03/24 02:51:27;;;;;;;0.45;0.20;;;;;;;9.89;32.87;97627.03;5038304;28;20029;-71
2024/03/24 02:53:52;;;;;;;1.25;0.40;;;;;;;9.71;33.45;97627.22;5002181;28;20029;-71
2024/03/24 02:56:17;;;;;;;0.93;0.30;;;;;;;9.73;32.98;97620.06;5030489;28;20055;-69
2024/03/24 02:58:43;;;;;;;0.65;0.25;;;;;;;9.67;33.40;97613.75;4999836;28;20792;-68
2024/03/24 03:01:10;;;;;;;1.05;0.30;;;;;;;9.63;33.08;97617.66;4997719;28;20125;-71
2024/03/24 03:03:36;;;;;;;1.27;0.20;;;;;;;9.71;32.23;97615.06;5011338;28;20141;-68
2024/03/24 03:06:03;;;;;;;0.80;0.22;;;;;;;9.53;32.63;97611.81;4997538;28;20071;-67
2024/03/24 03:08:29;;;;;;;0.75;0.30;;;;;;;9.50;32.74;97605.16;5014688;28;20026;-71
2024/03/24 03:10:56;;;;;;;0.50;0.17;;;;;;;9.33;32.57;97593.16;4995579;28;20521;-69
2024/03/24 03:13:24;;;;;;;1.60;0.30;;;;;;;9.37;31.90;97590.06;5003937;28;20032;-70
2024/03/24 03:15:51;;;;;;;1.05;0.40;;;;;;;9.32;32.42;97589.75;4988442;28;20778;-70
2024/03/24 03:18:17;;;;;;;0.75;0.25;;;;;;;9.40;32.59;97592.34;4997126;28;20018;-69
2024/03/24 03:20:44;;;;;;;1.42;0.30;;;;;;;9.10;32.05;97557.47;5001370;28;20613;-65
2024/03/24 03:23:12;;;;;;;1.10;0.30;;;;;;;9.31;32.38;97582.13;4994267;28;20041;-72
2024/03/24 03:25:38;;;;;;;1.33;0.40;;;;;;;9.26;32.29;97561.88;4997039;28;20025;-67
2024/03/24 03:28:06;;;;;;;0.93;0.32;;;;;;;9.25;32.87;97575.78;4993857;28;20281;-70
2024/03/24 03:30:34;;;;;;;1.65;0.30;;;;;;;9.26;32.46;97571.44;4995219;28;20715;-70
2024/03/24 03:33:01;;;;;;;2.25;0.35;;;;;;;9.30;32.38;97570.94;5011687;28;20033;-70
2024/03/24 03:35:27;;;;;;;1.58;0.30;;;;;;;9.28;32.86;97572.88;5013463;28;21214;-68
2024/03/24 03:37:54;;;;;;;1.48;0.40;;;;;;;9.24;33.00;97562.03;4995446;28;20022;-70
2024/03/24 03:40:20;;;;;;;0.95;0.30;;;;;;;9.33;33.00;97569.81;5008328;28;20052;-69
2024/03/24 03:42:47;;;;;;;0.88;0.30;;;;;;;9.08;33.56;97540.47;5029740;28;20017;-70
2024/03/24 03:45:15;;;;;;;0.95;0.30;;;;;;;9.20;34.28;97560.72;5026946;28;20660;-70
2024/03/24 03:47:40;;;;;;;0.45;0.20;;;;;;;9.21;33.73;97553.75;4991670;28;20107;-68
2024/03/24 03:50:13;;;;;;;0.75;0.20;;;;;;;9.11;33.22;97568.66;4994974;28;20037;-70
2024/03/24 03:52:47;;;;;;;0.10;0.10;;;;;;;9.04;33.01;97522.63;4977925;28;20037;-67
2024/03/24 03:55:15;;;;;;;1.50;0.35;;;;;;;9.39;34.29;97563.97;5012878;28;20736;-70
2024/03/24 03:57:44;;;;;;;0.75;0.20;;;;;;;9.35;33.46;97563.50;4994181;28;20025;-70
2024/03/24 04:00:15;;;;;;;0.85;0.20;;;;;;;9.41;33.66;97562.03;5013344;28;20041;-70
2024/03/24 04:02:48;;;;;;;1.45;0.40;;;;;;;9.51;35.32;97559.25;4996774;28;20030;-70
2024/03/24 04:05:13;;;;;;;2.65;0.52;;;;;;;9.47;36.97;97556.16;5013773;28;20785;-69
2024/03/24 04:07:39;;;;;;;1.35;0.40;;;;;;;9.42;38.20;97569.66;4997407;28;20025;-68
2024/03/24 04:10:05;;;;;;;1.05;0.30;;;;;;;9.41;35.42;97562.81;5010658;28;20515;-65
2024/03/24 04:12:31;;;;;;;0.85;0.30;;;;;;;9.45;34.18;97562.50;4995527;28;20104;-69
2024/03/24 04:15:00;;;;;;;0.68;0.20;;;;;;;8.91;33.62;97509.34;4979110;28;20044;-72
2024/03/24 04:17:28;;;;;;;0.75;0.30;;;;;;;9.21;33.31;97553.75;5007812;28;20030;-72
2024/03/24 04:19:54;;;;;;;1.58;0.40;;;;;;;9.13;33.71;97546.78;4984031;28;20448;-70
2024/03/24 04:22:20;;;;;;;1.05;0.30;;;;;;;9.15;33.71;97557.00;5032362;28;20022;-73
2024/03/24 04:24:49;;;;;;;1.08;0.22;;;;;;;9.04;33.58;97545.97;4994498;28;20093;-69
2024/03/24 04:27:15;;;;;;;1.60;0.30;;;;;;;9.02;34.65;97547.09;5006558;28;20026;-69
2024/03/24 04:29:43;;;;;;;1.33;0.30;;;;;;;9.01;34.75;97556.66;5000313;28;20042;-72
2024/03/24 04:32:09;;;;;;;0.13;0.10;;;;;;;9.07;34.36;97551.81;4982623;28;20333;-69
2024/03/24 04:34:35;;;;;;;0.73;0.30;;;;;;;8.97;34.40;97539.81;5008723;28;20030;-69
2024/03/24 04:37:01;;;;;;;0.80;0.20;;;;;;;8.99;34.53;97539.66;4977645;28;20038;-70
2024/03/24 04:39:26;;;;;;;0.95;0.28;;;;;;;8.92;34.49;97536.88;4993203;28;20033;-69
2024/03/24 04:41:55;;;;;;;1.20;0.30;;;;;;;8.95;34.50;97533.97;4996274;28;20029;-70
2024/03/24 04:44:20;;;;;;;2.58;0.30;;;;;;;8.90;35.02;97541.41;4994083;28;20038;-68
2024/03/24 04:46:46;;;;;;;0.75;0.20;;;;;;;8.76;34.57;97535.09;4985375;28;20041;-67
2024/03/24 04:49:11;;;;;;;0.40;0.20;;;;;;;8.84;34.27;97529.09;5008608;28;20117;-71
2024/03/24 04:51:41;;;;;;;0.85;0.30;;;;;;;8.84;34.33;97539.47;4999572;28;20740;-71
2024/03/24 04:54:07;;;;;;;0.70;0.20;;;;;;;8.68;35.21;97514.31;5027275;28;20037;-70
2024/03/24 04:56:32;;;;;;;2.05;0.35;;;;;;;8.60;35.32;97525.50;4994159;28;20022;-69
2024/03/24 04:58:58;;;;;;;0.82;0.30;;;;;;;8.60;34.63;97520.31;4993774;28;20828;-69
2024/03/24 05:01:23;;;;;;;0.38;0.20;;;;;;;8.73;33.04;97511.28;4996537;28;20412;-71
2024/03/24 05:03:49;;;;;;;1.40;0.52;;;;;;;8.44;34.39;97460.69;4995746;28;20056;-72
2024/03/24 05:06:14;;;;;;;0.82;0.20;;;;;;;8.76;35.96;97521.28;4999331;28;20084;-67
2024/03/24 05:08:42;;;;;;;0.60;0.20;;;;;;;8.59;36.04;97528.25;4981727;28;20025;-68
2024/03/24 05:11:10;;;;;;;0.85;0.20;;;;;;;8.40;36.67;97529.28;5009838;28;20147;-70
2024/03/24 05:13:36;;;;;;;0.57;0.15;;;;;;;8.45;35.74;97525.28;4997277;28;20030;-70
2024/03/24 05:16:07;;;;;;;3.88;0.30;;;;;;;8.40;36.13;97524.13;4976371;28;20038;-67
2024/03/24 05:18:36;;;;;;;0.77;0.30;;;;;;;8.37;37.39;97511.47;4981017;28;20137;-68
2024/03/24 05:21:02;;;;;;;0.50;0.20;;;;;;;8.28;37.55;97532.16;4993885;28;20041;-69
2024/03/24 05:23:30;;;;;;;0.80;0.17;;;;;;;8.36;37.21;97531.38;4990721;28;20057;-71
2024/03/24 05:26:00;;;;;;;2.28;0.50;;;;;;;8.25;37.39;97522.13;5010218;28;20123;-71
2024/03/24 05:28:26;;;;;;;1.40;0.20;;;;;;;8.31;39.41;97535.41;4975390;28;20030;-69
2024/03/24 05:30:52;;;;;;;1.17;0.47;;;;;;;8.23;38.44;97536.19;4990957;28;21308;-67
2024/03/24 05:33:21;;;;;;;0.90;0.25;;;;;;;8.37;38.29;97529.59;4979277;28;20041;-65
2024/03/24 05:35:47;;;;;;;0.85;0.30;;;;;;;8.30;38.40;97533.78;4994505;28;20038;-69
2024/03/24 05:38:14;;;;;;;0.90;0.20;;;;;;;8.25;39.27;97539.41;4994718;28;20042;-68
2024/03/24 05:40:40;;;;;;;1.10;0.20;;;;;;;8.24;40.86;97543.78;4997208;28;20540;-67
2024/03/24 05:43:05;;;;;;;0.63;0.20;;;;;;;8.23;41.68;97554.31;5002008;28;20139;-67
2024/03/24 05:45:35;;;;;;;2.20;0.70;;;;;;;8.24;41.70;97550.75;5008314;28;20125;-72
2024/03/24 05:48:01;;;;;;;0.73;0.22;;;;;;;8.09;41.51;97550.53;4997629;28;20018;-68
2024/03/24 05:50:29;;;;;;;1.15;0.30;;;;;;;8.02;40.62;97555.50;4997455;28;20037;-70
2024/03/24 05:52:57;;;;;;;0.70;0.20;;;;;;;7.87;40.93;97523.41;4997642;28;20031;-69
2024/03/24 05:55:25;;;;;;;2.08;0.30;;;;;;;8.12;39.82;97562.34;4983251;28;20040;-70
2024/03/24 05:57:53;;;;;;;0.85;0.30;;;;;;;8.16;40.73;97561.06;4997013;28;20465;-69
2024/03/24 06:00:22;;;;;;;1.50;0.35;;;;;;;8.11;41.43;97573.69;5018885;28;20081;-64
2024/03/24 06:02:47;;;;;;;0.40;0.20;;;;;;;7.74;41.35;97513.47;5007839;28;21216;-70
2024/03/24 06:05:12;;;;;;;1.27;0.30;;;;;;;7.96;41.36;97544.94;5034053;28;20209;-69
2024/03/24 06:07:38;;;;;;;1.65;0.45;;;;;;;8.03;41.40;97562.31;4994884;28;20419;-69
2024/03/24 06:10:08;;;;;;;0.82;0.20;;;;;;;8.03;41.60;97566.66;5001271;28;20117;-66
2024/03/24 06:12:33;;;;;;;;;;;;;;;8.00;41.08;97564.41;4999724;28;20053;-69
2024/03/24 06:14:58;;;;;;;0.85;0.32;;;;;;;8.05;41.32;97557.00;4994359;28;20355;-67
2024/03/24 06:17:24;;;;;;;0.93;0.30;;;;;;;7.98;42.34;97566.34;5005377;28;20038;-66
2024/03/24 06:19:49;;;;;;;0.80;0.20;;;;;;;8.02;42.70;97568.47;4999504;28;20092;-69
2024/03/24 06:22:15;;;;;;;1.30;0.30;;;;;;;8.01;42.93;97581.56;5019191;28;20025;-67
2024/03/24 06:24:41;;;;;;;1.40;0.47;;;;;;;7.78;42.75;97540.66;4998977;28;20033;-69
2024/03/24 06:27:06;;;;;;;0.38;0.20;;;;;;;8.10;40.65;97585.81;5010951;28;20037;-67
2024/03/24 06:29:34;;;;;;;0.60;0.20;;;;;;;8.16;41.72;97561.91;5008526;28;20033;-69
2024/03/24 06:31:59;;;;;;;0.65;0.20;;;;;;;8.12;43.63;97550.22;4998113;28;20054;-69
2024/03/24 06:34:24;;;;;;;1.17;0.30;;;;;;;8.11;44.12;97550.38;5027377;28;20030;-69
2024/03/24 06:36:50;;;;;;;0.93;0.30;;;;;;;7.68;44.30;97514.91;4996425;28;20491;-68
2024/03/24 06:39:15;;;;;;;0.85;0.30;;;;;;;7.88;43.83;97553.50;5030736;28;20046;-71
2024/03/24 06:41:43;;;;;;;0.70;0.30;;;;;;;7.67;43.88;97520.22;5001243;28;20884;-67
2024/03/24 06:44:18;;;;;;;1.17;0.40;;;;;;;7.97;42.88;97546.59;4997444;28;20022;-69
2024/03/24 06:46:47;;;;;;;1.83;0.30;;;;;;;8.09;41.31;97561.69;4997328;28;20472;-67
2024/03/24 06:49:12;;;;;;;1.40;0.40;;;;;;;8.04;43.03;97563.13;5011812;28;20030;-69
2024/03/24 06:51:37;;;;;;;1.83;0.40;;;;;;;8.04;43.03;97556.16;5006757;28;20132;-67
2024/03/24 06:54:05;;;;;;;2.17;0.30;;;;;;;7.97;44.36;97569.88;4997716;28;21420;-69
2024/03/24 06:56:31;;;;;;;0.75;0.30;;;;;;;8.00;44.72;97560.03;4977906;28;20830;-71
2024/03/24 06:58:59;;;;;;;0.85;0.30;;;;;;;7.95;45.95;97564.06;5001221;28;20033;-69
2024/03/24 07:01:26;;;;;;;1.27;0.40;;;;;;;7.96;46.14;97569.09;5031762;28;20678;-69
2024/03/24 07:03:52;;;;;;;1.35;0.30;;;;;;;8.06;45.63;97579.31;4985828;28;20471;-67
2024/03/24 07:06:17;;;;;;;2.08;0.50;;;;;;;8.11;45.50;97581.47;5011248;28;20034;-68
2024/03/24 07:08:43;;;;;;;1.35;0.50;;;;;;;8.12;44.47;97576.09;5005787;28;20547;-67
2024/03/24 07:11:14;;;;;;;0.50;0.20;;;;;;;8.20;41.62;97575.34;4998060;28;20698;-70
2024/03/24 07:13:40;;;;;;;2.17;0.30;;;;;;;8.33;41.99;97577.50;4993707;28;20030;-70
2024/03/24 07:16:06;;;;;;;1.92;0.50;;;;;;;8.49;38.31;97575.00;5007746;28;20590;-67
2024/03/24 07:18:31;;;;;;;1.02;0.30;;;;;;;8.71;35.80;97578.00;5002033;28;21025;-70
2024/03/24 07:21:03;;;;;;;0.60;0.30;;;;;;;8.84;35.12;97573.97;4996196;28;20097;-70
2024/03/24 07:23:31;;;;;;;0.65;0.40;;;;;;;9.02;34.33;97573.03;4974607;28;20029;-69
2024/03/24 07:25:57;;;;;;;0.93;0.30;;;;;;;9.06;34.56;97558.78;4998026;28;20633;-68
2024/03/24 07:28:22;;;;;;;0.85;0.32;;;;;;;9.14;33.80;97563.94;5028664;28;20107;-68
2024/03/24 07:30:48;;;;;;;0.75;0.25;;;;;;;9.12;33.09;97573.69;4999826;28;20033;-66
2024/03/24 07:33:15;;;;;;;1.85;0.40;;;;;;;9.20;32.76;97565.91;5000955;28;20041;-67
2024/03/24 07:35:44;;;;;;;1.38;0.32;;;;;;;9.26;33.26;97581.81;5011640;28;20021;-68
2024/03/24 07:38:11;;;;;;;1.70;0.20;;;;;;;9.31;33.03;97582.13;4996874;28;20082;-70
2024/03/24 07:40:37;;;;;;;1.42;0.57;;;;;;;9.37;34.05;97587.47;5011067;28;20030;-70
2024/03/24 07:43:03;;;;;;;1.80;0.40;;;;;;;9.24;33.68;97574.19;5008680;28;20575;-67
2024/03/24 07:45:30;;;;;;;1.52;0.40;;;;;;;9.16;35.17;97576.75;5005050;28;20033;-69
2024/03/24 07:47:58;;;;;;;1.20;0.40;;;;;;;9.06;35.78;97551.00;4995121;28;20042;-69
2024/03/24 07:50:23;;;;;;;1.23;0.30;;;;;;;9.30;36.71;97591.69;4993878;28;20042;-70
2024/03/24 07:52:51;;;;;;;0.82;0.30;;;;;;;9.30;37.37;97581.31;5011902;28;20052;-68
2024/03/24 07:55:19;;;;;;;1.27;0.40;;;;;;;9.37;38.92;97592.66;4993756;28;20034;-65
2024/03/24 07:57:45;;;;;;;1.45;0.50;;;;;;;9.36;39.87;97591.06;4996329;28;20029;-69
2024/03/24 08:00:12;;;;;;;1.98;0.60;;;;;;;9.13;41.69;97562.34;5000662;28;21256;-66
2024/03/24 08:02:37;;;;;;;1.42;0.50;;;;;;;9.18;42.52;97585.19;4993912;28;20135;-71
2024/03/24 08:05:03;;;;;;;2.65;0.57;;;;;;;9.11;40.24;97599.78;4980633;28;20678;-71
2024/03/24 08:07:28;;;;;;;1.58;0.57;;;;;;;9.20;40.81;97593.66;4994847;28;20538;-69
2024/03/24 08:09:54;;;;;;;2.17;0.65;;;;;;;9.12;42.56;97580.66;4993655;28;20038;-69
2024/03/24 08:12:21;;;;;;;2.05;0.50;;;;;;;9.07;42.03;97590.69;5009992;28;20034;-71
2024/03/24 08:14:47;;;;;;;0.55;0.20;;;;;;;8.81;39.17;97552.75;4995859;28;20227;-72
2024/03/24 08:17:12;;;;;;;1.05;0.30;;;;;;;8.96;39.61;97586.63;5002984;28;20039;-69
2024/03/24 08:19:40;;;;;;;1.48;0.40;;;;;;;8.97;39.05;97594.25;4995551;28;20037;-69
2024/03/24 08:22:05;;;;;;;2.05;0.50;;;;;;;8.97;39.08;97589.06;4981391;28;20207;-66
2024/03/24 08:24:33;;;;;;;1.17;0.30;;;;;;;8.88;37.57;97548.53;4989472;28;20032;-67
2024/03/24 08:27:01;;;;;;;0.85;0.30;;;;;;;9.08;37.39;97582.75;4979469;28;20060;-68
2024/03/24 08:29:26;;;;;;;1.55;0.40;;;;;;;9.26;38.74;97605.97;4995006;28;20025;-70
2024/03/24 08:31:52;;;;;;;2.78;0.45;;;;;;;9.28;39.93;97600.63;4991558;28;20041;-71
2024/03/24 08:34:20;;;;;;;2.08;0.60;;;;;;;9.34;41.38;97607.75;4998143;28;20493;-69
2024/03/24 08:36:45;;;;;;;5.50;1.80;;;;;;;9.33;40.50;97604.34;4973523;28;20052;-68
2024/03/24 08:39:11;;;;;;;4.85;1.30;;;;;;;9.33;40.67;97598.34;5007521;28;20111;-71
2024/03/24 08:41:36;;;;;;;3.88;1.08;;;;;;;9.37;41.35;97594.47;4988085;28;20032;-71
2024/03/24 08:44:04;;;;;;;4.00;1.25;;;;;;;9.35;42.39;97610.19;5025741;28;20030;-68
2024/03/24 08:46:35;;;;;;;5.18;1.40;;;;;;;9.33;40.49;97604.34;4992984;28;20684;-70
2024/03/24 08:49:01;;;;;;;3.25;1.00;;;;;;;9.29;41.25;97608.25;4974259;28;20029;-67
2024/03/24 08:51:29;;;;;;;3.22;0.90;;;;;;;9.27;40.42;97604.19;4976802;28;20037;-70
2024/03/24 08:53:54;;;;;;;2.05;0.68;;;;;;;9.29;39.98;97608.25;4982895;28;20018;-65
2024/03/24 08:56:20;;;;;;;2.35;0.50;;;;;;;9.34;39.53;97615.53;4997014;28;20041;-70
2024/03/24 08:58:45;;;;;;;1.80;0.73;;;;;;;9.22;40.16;97557.97;4992797;28;20622;-68
2024/03/24 09:01:13;;;;;;;2.15;0.50;;;;;;;9.60;40.44;97594.59;4988686;28;20064;-68
2024/03/24 09:03:38;;;;;;;2.75;0.68;;;;;;;9.41;40.69;97555.03;4995752;28;20033;-67
2024/03/24 09:06:04;;;;;;;2.00;0.20;;;;;;;9.73;37.91;97594.94;4992492;28;20708;-70
2024/03/24 09:08:30;;;;;;;0.55;0.20;;;;;;;9.83;38.70;97605.13;5028668;28;20117;-68
2024/03/24 09:10:55;;;;;;;2.25;0.50;;;;;;;9.69;39.09;97592.81;4979720;28;20033;-67
2024/03/24 09:13:21;;;;;;;1.00;0.30;;;;;;;9.69;39.11;97604.03;4993713;28;20034;-67
2024/03/24 09:15:47;;;;;;;1.98;0.40;;;;;;;9.90;39.71;97610.50;4990763;28;20046;-68
2024/03/24 09:18:12;;;;;;;2.80;0.73;;;;;;;10.07;37.40;97596.47;4994113;28;20029;-69
2024/03/24 09:20:38;;;;;;;3.22;0.98;;;;;;;10.14;37.83;97607.03;5000456;28;20029;-68
2024/03/24 09:23:04;;;;;;;2.60;0.68;;;;;;;10.19;37.55;97600.34;4996306;28;20034;-68
2024/03/24 09:25:36;;;;;;;1.75;0.43;;;;;;;10.19;36.85;97596.97;4980059;28;20040;-70
2024/03/24 09:28:02;;;;;;;3.75;0.90;;;;;;;10.03;35.94;97558.84;5010462;28;20115;-71
2024/03/24 09:30:29;;;;;;;3.22;0.60;;;;;;;10.35;35.18;97588.34;5004567;28;20465;-71
2024/03/24 09:32:55;;;;;;;3.17;0.80;;;;;;;10.51;36.31;97590.03;5000342;28;20057;-70
2024/03/24 09:35:25;;;;;;;2.78;0.60;;;;;;;10.65;34.60;97593.72;4994513;28;20121;-71
2024/03/24 09:37:53;;;;;;;2.22;0.60;;;;;;;10.77;34.33;97587.97;5013532;28;20178;-70
2024/03/24 09:40:22;;;;;;;1.77;0.43;;;;;;;10.75;33.53;97558.75;5002388;28;20477;-72
2024/03/24 09:42:50;;;;;;;1.43;0.30;;;;;;;11.08;31.08;97587.16;4994191;28;20018;-70
2024/03/24 09:45:20;;;;;;;4.75;1.30;;;;;;;11.02;31.62;97554.00;4994469;28;20603;-71
2024/03/24 09:47:46;;;;;;;1.40;0.40;;;;;;;11.29;32.59;97586.50;4992578;28;20752;-70
2024/03/24 09:50:14;;;;;;;1.42;0.40;;;;;;;11.20;31.40;97548.50;4994644;28;20034;-72
2024/03/24 09:52:40;;;;;;;0.98;0.20;;;;;;;11.32;30.62;97544.53;5026555;28;20029;-71
2024/03/24 09:55:07;;;;;;;0.93;0.30;;;;;;;11.43;30.70;97561.50;4999497;28;20038;-70
2024/03/24 09:57:35;;;;;;;2.60;0.70;;;;;;;11.56;29.43;97568.72;4976008;28;20528;-69
2024/03/24 10:00:05;;;;;;;4.60;1.40;;;;;;;11.50;29.62;97564.22;5000452;28;20029;-71
2024/03/24 10:02:31;;;;;;;7.35;3.13;;;;;;;11.71;30.45;97553.91;4993637;28;20445;-70
2024/03/24 10:04:57;;;;;;;1.27;0.43;;;;;;;11.80;30.61;97572.09;5035184;28;20113;-73
2024/03/24 10:07:23;;;;;;;1.05;0.30;;;;;;;11.85;30.68;97561.94;4995702;28;20061;-70
2024/03/24 10:09:48;;;;;;;1.20;0.30;;;;;;;11.64;28.46;97524.38;4976119;28;20073;-69
2024/03/24 10:12:14;;;;;;;2.17;0.50;;;;;;;11.86;28.97;97553.13;4991844;28;20485;-72
2024/03/24 10:14:40;;;;;;;1.85;0.50;;;;;;;11.97;27.49;97552.72;4995320;28;20809;-70
2024/03/24 10:17:14;;;;;;;2.72;0.60;;;;;;;11.96;27.86;97556.31;5014201;28;20112;-71
2024/03/24 10:19:40;;;;;;;1.58;0.50;;;;;;;11.97;29.28;97557.13;5000617;28;20109;-71
2024/03/24 10:22:12;;;;;;;2.85;0.60;;;;;;;12.02;29.80;97536.56;4989781;28;20037;-72
2024/03/24 10:24:37;;;;;;;1.58;0.40;;;;;;;12.08;31.24;97530.63;4998475;28;20100;-70
2024/03/24 10:27:03;;;;;;;1.67;0.50;;;;;;;12.10;30.43;97529.47;5002697;28;20277;-71
2024/03/24 10:29:31;;;;;;;1.30;0.40;;;;;;;11.97;28.71;97492.78;4985971;28;20044;-70
2024/03/24 10:31:58;;;;;;;1.25;0.38;;;;;;;12.17;29.78;97505.28;4998942;28;20103;-72
2024/03/24 10:34:24;;;;;;;1.10;0.30;;;;;;;12.41;29.07;97519.78;5020250;28;20057;-72
2024/03/24 10:36:51;;;;;;;0.98;0.30;;;;;;;12.77;26.39;97519.00;5013891;28;20448;-73
2024/03/24 10:39:19;;;;;;;1.95;0.30;;;;;;;13.11;27.75;97518.31;5004040;28;20029;-73
2024/03/24 10:41:45;;;;;;;1.73;0.43;;;;;;;13.22;26.53;97517.00;5013929;28;20038;-71
2024/03/24 10:44:11;;;;;;;1.33;0.28;;;;;;;13.13;25.31;97502.47;5000713;28;20091;-71
2024/03/24 10:46:38;;;;;;;0.98;0.10;;;;;;;13.21;25.47;97510.94;5000877;28;20593;-71
2024/03/24 10:49:07;;;;;;;1.67;0.32;;;;;;;13.16;24.84;97502.06;5013859;28;20076;-69
2024/03/24 10:51:35;;;;;;;0.28;0.17;;;;;;;13.06;26.77;97478.91;5015117;28;20469;-72
2024/03/24 10:54:05;;;;;;;1.10;0.25;;;;;;;13.38;26.74;97501.09;4998523;28;20022;-70
2024/03/24 10:56:33;;;;;;;;;;;;;;;13.55;27.44;97499.00;4999994;28;20109;-71
2024/03/24 10:59:00;;;;;;;0.90;0.20;;;;;;;13.45;27.50;97493.28;5030965;28;20000;-70
2024/03/24 11:01:26;;;;;;;0.95;0.30;;;;;;;13.11;28.57;97455.69;5004009;28;20054;-70
2024/03/24 11:03:53;;;;;;;0.70;0.20;;;;;;;13.41;32.26;97487.66;4995630;28;20489;-71
2024/03/24 11:06:18;;;;;;;1.15;0.40;;;;;;;13.37;33.84;97465.53;5015129;28;20018;-70
2024/03/24 11:08:45;;;;;;;1.50;0.25;;;;;;;13.54;28.92;97475.69;4972728;28;20034;-71
2024/03/24 11:11:11;;;;;;;0.40;0.17;;;;;;;13.55;30.64;97487.75;4997537;28;21102;-71
2024/03/24 11:13:37;;;;;;;0.68;0.20;;;;;;;13.58;32.36;97477.72;5016909;28;20026;-73
2024/03/24 11:16:06;;;;;;;0.80;0.20;;;;;;;13.62;26.79;97468.50;4997824;28;20418;-71
2024/03/24 11:18:32;;;;;;;1.65;0.30;;;;;;;13.72;28.16;97455.09;4993276;28;20033;-70
2024/03/24 11:21:01;;;;;;;0.70;0.20;;;;;;;13.59;26.04;97475.91;4999656;28;20543;-70
2024/03/24 11:23:37;;;;;;;0.65;0.20;;;;;;;13.82;24.99;97475.66;4982104;28;20551;-72
2024/03/24 11:26:06;;;;;;;0.22;0.20;;;;;;;13.89;23.44;97439.94;4983320;28;20650;-71
2024/03/24 11:28:52;;;;;;;1.00;0.30;;;;;;;14.06;23.89;97465.72;4997076;28;20025;-71
2024/03/24 11:31:31;;;;;;;2.05;0.50;;;;;;;14.04;23.15;97476.38;4981483;28;20062;-72
2024/03/24 11:33:59;;;;;;;1.67;0.70;;;;;;;13.76;23.96;97438.06;4997881;28;20033;-72
2024/03/24 11:36:25;;;;;;;1.33;0.28;;;;;;;13.76;23.51;97461.56;4993836;28;20694;-71